Time;durP1;ratioP1;P1;durP2;ratioP2;P2;SDS_P1;SDS_P2;PMS_P1;PMS_P2;Temp;Humidity;BMP_temperature;BMP_pressure;BME280_temperature;BME280_humidity;BME280_pressure;Samples;Min_cycle;Max_cycle;Signal;HPM_P1;HPM_P2
2023/06/27 00:02:03;;;;;;;5.07;3.10;;;14.70;99.90;;;;;;5112288;28;20499;-63
2023/06/27 00:04:30;;;;;;;4.40;3.90;;;14.70;99.90;;;;;;5118911;28;20470;-62
2023/06/27 00:06:59;;;;;;;4.10;3.27;;;14.60;99.90;;;;;;5119035;28;20543;-62
2023/06/27 00:09:26;;;;;;;3.30;3.00;;;14.70;99.90;;;;;;5118483;28;20491;-63
2023/06/27 00:11:53;;;;;;;4.17;3.37;;;14.70;99.90;;;;;;5118751;28;20460;-63
2023/06/27 00:14:21;;;;;;;4.00;3.30;;;14.80;99.90;;;;;;5118960;28;20480;-63
2023/06/27 00:16:48;;;;;;;3.83;3.07;;;14.80;99.90;;;;;;5118109;28;20439;-63
2023/06/27 00:19:15;;;;;;;3.93;3.00;;;14.70;99.90;;;;;;5118488;28;20444;-63
2023/06/27 00:21:43;;;;;;;3.80;3.10;;;14.60;99.90;;;;;;5118395;28;20982;-63
2023/06/27 00:24:14;;;;;;;3.93;3.50;;;14.60;99.90;;;;;;5118437;28;20502;-63
2023/06/27 00:26:41;;;;;;;4.33;3.37;;;14.60;99.90;;;;;;5118686;28;20495;-63
2023/06/27 00:29:08;;;;;;;5.23;3.53;;;14.60;99.90;;;;;;5118434;28;20495;-63
2023/06/27 00:31:36;;;;;;;3.30;2.90;;;14.60;99.90;;;;;;5118532;28;20459;-63
2023/06/27 00:34:03;;;;;;;4.93;3.13;;;14.50;99.90;;;;;;5118331;28;20464;-62
2023/06/27 00:36:30;;;;;;;4.23;3.73;;;14.40;1.00;;;;;;5118439;28;20501;-63
2023/06/27 00:38:57;;;;;;;3.73;3.27;;;14.40;1.00;;;;;;5118462;28;20455;-62
2023/06/27 00:41:26;;;;;;;3.93;3.60;;;14.40;1.00;;;;;;5118030;28;20459;-63
2023/06/27 00:43:56;;;;;;;3.63;3.10;;;14.30;1.00;;;;;;5118091;28;20547;-63
2023/06/27 00:46:35;;;;;;;4.83;3.67;;;14.30;1.00;;;;;;5117968;28;20463;-63
2023/06/27 00:49:02;;;;;;;5.43;3.30;;;14.20;1.00;;;;;;5118596;28;20466;-63
2023/06/27 00:51:30;;;;;;;5.50;3.70;;;14.20;1.00;;;;;;5118172;28;20463;-63
2023/06/27 00:53:58;;;;;;;3.90;3.50;;;14.20;1.00;;;;;;5117783;28;20459;-63
2023/06/27 00:56:27;;;;;;;4.60;3.60;;;14.30;1.00;;;;;;5118009;28;20469;-63
2023/06/27 00:58:57;;;;;;;5.33;3.97;;;14.20;1.00;;;;;;5118013;28;20434;-63
2023/06/27 01:01:24;;;;;;;5.40;3.70;;;14.20;1.00;;;;;;5116664;28;20495;-63
2023/06/27 01:03:52;;;;;;;3.60;3.17;;;14.10;1.00;;;;;;5117742;28;20473;-63
2023/06/27 01:06:25;;;;;;;5.77;4.10;;;14.10;1.00;;;;;;5117808;28;20513;-63
2023/06/27 01:09:09;;;;;;;4.40;3.80;;;14.00;46.60;;;;;;5117734;28;20464;-63
2023/06/27 01:11:45;;;;;;;6.30;3.90;;;14.00;62.50;;;;;;5117704;28;20489;-63
2023/06/27 01:14:17;;;;;;;4.90;3.70;;;14.00;68.80;;;;;;5117369;28;20550;-63
2023/06/27 01:16:47;;;;;;;4.60;3.90;;;13.80;99.90;;;;;;5117958;28;20471;-63
2023/06/27 01:19:18;;;;;;;4.20;3.80;;;13.80;99.90;;;;;;5117743;28;20462;-63
2023/06/27 01:21:47;;;;;;;4.63;3.53;;;13.70;99.90;;;;;;5117766;28;20941;-63
2023/06/27 01:24:16;;;;;;;4.47;4.07;;;13.60;99.90;;;;;;5117716;28;20897;-63
2023/06/27 01:26:43;;;;;;;5.40;4.20;;;13.60;99.90;;;;;;5117749;28;21029;-63
2023/06/27 01:29:11;;;;;;;5.23;3.93;;;13.50;99.90;;;;;;5116957;28;20460;-63
2023/06/27 01:31:45;;;;;;;6.13;3.87;;;13.50;99.90;;;;;;5117230;28;20460;-63
2023/06/27 01:34:17;;;;;;;4.57;4.17;;;13.50;99.90;;;;;;5117223;28;20554;-63
2023/06/27 01:36:49;;;;;;;4.30;3.27;;;13.50;99.90;;;;;;5117953;28;20460;-63
2023/06/27 01:39:22;;;;;;;6.50;3.60;;;13.50;99.90;;;;;;5117005;28;20460;-63
2023/06/27 01:41:53;;;;;;;8.63;4.00;;;13.50;99.90;;;;;;5117465;28;20723;-63
2023/06/27 01:44:21;;;;;;;4.33;3.90;;;13.40;99.90;;;;;;5117420;28;20466;-63
2023/06/27 01:46:52;;;;;;;5.53;4.00;;;13.40;99.90;;;;;;5117358;28;20490;-63
2023/06/27 01:49:19;;;;;;;5.00;4.20;;;13.40;99.90;;;;;;5116975;28;20455;-63
2023/06/27 01:51:47;;;;;;;5.30;4.20;;;13.30;99.90;;;;;;5117029;28;20491;-63
2023/06/27 01:54:14;;;;;;;4.97;4.40;;;13.30;99.90;;;;;;5117207;28;20437;-63
2023/06/27 01:56:43;;;;;;;4.30;3.90;;;13.20;1.00;;;;;;5117194;28;20510;-63
2023/06/27 01:59:10;;;;;;;5.40;3.60;;;13.30;1.00;;;;;;5117526;28;20892;-63
2023/06/27 02:01:37;;;;;;;5.40;4.03;;;13.30;1.00;;;;;;5116926;28;20480;-63
2023/06/27 02:04:04;;;;;;;4.23;3.83;;;13.30;1.00;;;;;;5116840;28;20557;-63
2023/06/27 02:06:31;;;;;;;5.90;4.43;;;13.20;1.00;;;;;;5117145;28;20928;-63
2023/06/27 02:08:59;;;;;;;5.20;4.30;;;13.10;1.00;;;;;;5117414;28;20495;-63
2023/06/27 02:11:26;;;;;;;5.43;4.30;;;13.10;1.00;;;;;;5117091;28;20896;-63
2023/06/27 02:13:55;;;;;;;5.07;4.57;;;13.10;1.00;;;;;;5120004;28;20462;-63
2023/06/27 02:16:22;;;;;;;6.77;4.60;;;13.00;1.00;;;;;;5121427;28;20464;-63
2023/06/27 02:18:49;;;;;;;6.63;4.53;;;13.10;1.00;;;;;;5121137;28;20464;-63
2023/06/27 02:21:17;;;;;;;5.70;4.20;;;13.20;1.00;;;;;;5120489;28;20460;-63
2023/06/27 02:23:44;;;;;;;4.07;3.67;;;13.20;1.00;;;;;;5120756;28;20490;-63
2023/06/27 02:26:12;;;;;;;6.77;4.90;;;13.20;1.00;;;;;;5120667;28;20481;-63
2023/06/27 02:28:39;;;;;;;6.63;4.00;;;13.20;1.00;;;;;;5121251;28;20464;-63
2023/06/27 02:31:08;;;;;;;4.10;3.70;;;13.10;1.00;;;;;;5120900;28;20508;-63
2023/06/27 02:33:35;;;;;;;5.03;4.43;;;13.10;1.00;;;;;;5120657;28;20512;-64
2023/06/27 02:36:03;;;;;;;5.07;4.00;;;13.10;1.00;;;;;;5120662;28;20537;-63
2023/06/27 02:38:30;;;;;;;7.80;4.30;;;13.10;1.00;;;;;;5120474;28;20537;-63
2023/06/27 02:40:57;;;;;;;5.67;4.10;;;13.10;1.00;;;;;;5120473;28;20550;-63
2023/06/27 02:43:25;;;;;;;4.70;4.20;;;13.10;1.00;;;;;;5120304;28;20979;-63
2023/06/27 02:45:52;;;;;;;6.17;4.37;;;13.20;4.90;;;;;;5120634;28;20468;-63
2023/06/27 02:48:20;;;;;;;4.37;3.93;;;13.30;1.00;;;;;;5120211;28;20558;-64
2023/06/27 02:50:50;;;;;;;5.60;4.10;;;13.30;1.00;;;;;;5120274;28;20584;-63
2023/06/27 02:53:17;;;;;;;5.00;4.17;;;13.40;1.00;;;;;;5120469;28;20456;-63
2023/06/27 02:55:45;;;;;;;5.40;4.07;;;13.40;1.00;;;;;;5119935;28;20939;-63
2023/06/27 02:58:12;;;;;;;5.63;5.07;;;13.40;1.00;;;;;;5120106;28;20777;-63
2023/06/27 03:00:39;;;;;;;6.10;4.27;;;13.40;1.00;;;;;;5120098;28;20532;-63
2023/06/27 03:03:06;;;;;;;7.63;4.27;;;13.40;1.00;;;;;;5119983;28;20488;-63
2023/06/27 03:05:35;;;;;;;5.50;4.00;;;13.40;1.00;;;;;;5119517;28;20542;-64
2023/06/27 03:08:02;;;;;;;4.77;4.10;;;13.40;1.00;;;;;;5120045;28;20558;-63
2023/06/27 03:10:29;;;;;;;5.13;4.03;;;13.40;1.00;;;;;;5120111;28;20470;-64
2023/06/27 03:12:56;;;;;;;4.37;3.97;;;13.40;1.00;;;;;;5119831;28;20486;-63
2023/06/27 03:15:24;;;;;;;4.70;4.20;;;13.50;1.00;;;;;;5119773;28;20821;-64
2023/06/27 03:17:51;;;;;;;5.70;4.37;;;13.50;1.00;;;;;;5120000;28;20578;-64
2023/06/27 03:20:18;;;;;;;6.53;3.90;;;13.50;1.00;;;;;;5119627;28;20492;-64
2023/06/27 03:22:46;;;;;;;6.07;3.90;;;13.50;1.00;;;;;;5119313;28;20534;-64
2023/06/27 03:25:14;;;;;;;8.40;5.00;;;13.50;1.00;;;;;;5118992;28;20570;-64
2023/06/27 03:27:41;;;;;;;5.60;5.07;;;13.40;1.00;;;;;;5119350;28;20506;-64
2023/06/27 03:30:10;;;;;;;5.47;4.20;;;13.40;1.00;;;;;;5119459;28;20489;-63
2023/06/27 03:32:37;;;;;;;7.27;4.77;;;13.40;1.00;;;;;;5119560;28;20877;-63
2023/06/27 03:35:05;;;;;;;5.40;4.30;;;13.30;1.00;;;;;;5119743;28;20498;-64
2023/06/27 03:37:33;;;;;;;6.93;4.87;;;13.40;1.00;;;;;;5119672;28;20500;-64
2023/06/27 03:40:02;;;;;;;6.07;4.60;;;13.40;1.00;;;;;;5119622;28;20485;-64
2023/06/27 03:42:29;;;;;;;6.57;4.50;;;13.50;1.00;;;;;;5119498;28;20460;-64
2023/06/27 03:44:56;;;;;;;5.17;4.03;;;13.40;1.00;;;;;;5119234;28;20459;-63
2023/06/27 03:47:24;;;;;;;5.50;4.60;;;13.40;1.00;;;;;;5118879;28;20506;-64
2023/06/27 03:49:51;;;;;;;7.03;5.20;;;13.50;1.00;;;;;;5119548;28;20904;-64
2023/06/27 03:52:19;;;;;;;5.43;3.90;;;13.50;1.00;;;;;;5119009;28;20495;-64
2023/06/27 03:54:46;;;;;;;5.10;4.37;;;13.40;1.00;;;;;;5119176;28;20872;-64
2023/06/27 03:57:15;;;;;;;7.33;5.30;;;13.40;1.00;;;;;;5118518;28;20873;-64
2023/06/27 03:59:42;;;;;;;4.90;4.23;;;13.40;1.00;;;;;;5119031;28;20554;-64
2023/06/27 04:02:09;;;;;;;5.00;4.50;;;13.40;1.00;;;;;;5135930;27;20490;-64
2023/06/27 04:04:36;;;;;;;5.80;5.07;;;13.50;1.00;;;;;;5139620;27;20461;-64
2023/06/27 04:07:03;;;;;;;6.30;4.30;;;13.50;1.00;;;;;;5139503;27;20498;-63
2023/06/27 04:09:31;;;;;;;5.70;4.33;;;13.60;1.00;;;;;;5139070;27;20458;-64
2023/06/27 04:11:59;;;;;;;6.57;4.40;;;13.50;1.00;;;;;;5139386;27;20466;-64
2023/06/27 04:14:28;;;;;;;7.20;4.70;;;13.50;1.00;;;;;;5139539;27;20462;-64
2023/06/27 04:16:55;;;;;;;7.07;4.17;;;13.50;1.00;;;;;;5139136;27;20955;-64
2023/06/27 04:19:22;;;;;;;8.83;5.00;;;13.50;1.00;;;;;;5139057;27;20554;-64
2023/06/27 04:21:49;;;;;;;6.27;5.67;;;13.60;46.50;;;;;;5138862;27;20498;-64
2023/06/27 04:24:17;;;;;;;6.30;4.87;;;13.60;99.90;;;;;;5138803;27;20497;-64
2023/06/27 04:26:44;;;;;;;7.73;4.93;;;13.60;8.60;;;;;;5138730;27;20470;-64
2023/06/27 04:29:12;;;;;;;6.20;4.57;;;13.60;28.20;;;;;;5139230;27;20568;-64
2023/06/27 04:31:40;;;;;;;10.40;5.30;;;13.70;6.20;;;;;;5137744;27;20545;-64
2023/06/27 04:34:08;;;;;;;8.40;4.30;;;13.60;1.00;;;;;;5138033;27;20550;-64
2023/06/27 04:36:36;;;;;;;8.33;4.70;;;13.80;1.00;;;;;;5138829;27;20512;-64
2023/06/27 04:39:05;;;;;;;5.30;4.20;;;13.90;3.90;;;;;;5138761;27;20463;-64
2023/06/27 04:41:32;;;;;;;5.50;5.00;;;14.00;1.00;;;;;;5138290;27;20465;-64
2023/06/27 04:44:00;;;;;;;5.17;4.40;;;14.10;1.00;;;;;;5138281;27;20874;-64
2023/06/27 04:46:28;;;;;;;6.23;4.93;;;14.20;1.00;;;;;;5138366;27;20546;-64
2023/06/27 04:48:58;;;;;;;6.37;4.60;;;14.30;1.00;;;;;;5138147;27;20462;-63
2023/06/27 04:51:27;;;;;;;6.50;4.40;;;14.40;1.00;;;;;;5137748;27;20447;-55
2023/06/27 04:53:54;;;;;;;6.13;4.77;;;14.50;99.90;;;;;;5138341;27;20486;-54
2023/06/27 04:56:21;;;;;;;5.67;4.00;;;14.60;99.90;;;;;;5137491;27;20534;-55
2023/06/27 04:58:49;;;;;;;5.80;4.53;;;14.80;99.90;;;;;;5134905;27;20752;-52
2023/06/27 05:01:16;;;;;;;9.23;4.87;;;14.90;99.90;;;;;;5137014;27;20535;-55
2023/06/27 05:03:43;;;;;;;7.90;4.33;;;14.90;99.90;;;;;;5137926;27;20489;-54
2023/06/27 05:06:13;;;;;;;7.27;4.80;;;15.10;99.90;;;;;;5137929;27;20953;-53
2023/06/27 05:08:40;;;;;;;6.37;4.20;;;15.10;99.90;;;;;;5137526;27;20477;-54
2023/06/27 05:11:08;;;;;;;8.00;4.27;;;15.20;99.90;;;;;;5137024;27;20945;-57
2023/06/27 05:13:35;;;;;;;6.17;4.43;;;15.40;99.90;;;;;;5136339;27;20499;-52
2023/06/27 05:16:02;;;;;;;7.80;4.40;;;15.40;99.90;;;;;;5136704;27;20504;-53
2023/06/27 05:18:30;;;;;;;5.83;4.50;;;15.40;99.90;;;;;;5134778;27;20480;-52
2023/06/27 05:20:57;;;;;;;7.87;4.80;;;15.50;99.90;;;;;;5137034;27;20751;-55
2023/06/27 05:23:26;;;;;;;6.90;4.27;;;15.60;99.40;;;;;;5136393;27;20486;-55
2023/06/27 05:25:53;;;;;;;8.57;4.50;;;15.80;99.90;;;;;;5137499;28;20483;-53
2023/06/27 05:28:20;;;;;;;9.00;4.57;;;16.00;1.00;;;;;;5138037;28;20557;-55
2023/06/27 05:30:47;;;;;;;5.77;4.20;;;16.10;1.00;;;;;;5137950;28;20467;-53
2023/06/27 05:33:15;;;;;;;8.20;4.50;;;16.20;1.00;;;;;;5137174;28;20454;-61
2023/06/27 05:35:42;;;;;;;13.77;4.50;;;16.30;1.00;;;;;;5136938;28;20465;-60
2023/06/27 05:38:09;;;;;;;10.73;4.97;;;16.30;1.00;;;;;;5137188;28;20903;-59
2023/06/27 05:40:38;;;;;;;7.00;4.50;;;16.40;1.00;;;;;;5137652;28;20511;-59
2023/06/27 05:43:06;;;;;;;7.07;4.73;;;16.40;1.00;;;;;;5137665;28;20811;-61
2023/06/27 05:45:33;;;;;;;6.87;4.40;;;16.40;1.00;;;;;;5134381;27;20466;-59
2023/06/27 05:48:00;;;;;;;7.63;5.50;;;16.40;1.00;;;;;;5160554;27;20466;-60
2023/06/27 05:50:28;;;;;;;10.23;4.83;;;16.30;1.00;;;;;;5162122;27;20458;-61
2023/06/27 05:52:55;;;;;;;11.47;6.00;;;16.30;1.00;;;;;;5147701;27;20440;-61
2023/06/27 05:55:22;;;;;;;8.50;4.03;;;16.40;1.00;;;;;;5139148;27;20446;-60
2023/06/27 05:57:51;;;;;;;12.57;4.50;;;16.30;1.00;;;;;;5139756;27;20474;-60
2023/06/27 06:00:21;;;;;;;10.47;5.03;;;16.20;1.00;;;;;;5149453;27;20478;-63
2023/06/27 06:02:48;;;;;;;7.13;5.00;;;16.20;1.00;;;;;;5136034;27;20448;-60
2023/06/27 06:05:17;;;;;;;7.50;5.20;;;16.30;1.00;;;;;;5139924;27;20482;-60
2023/06/27 06:07:45;;;;;;;9.20;4.57;;;16.30;1.00;;;;;;5141216;27;20801;-61
2023/06/27 06:10:13;;;;;;;6.07;4.60;;;16.30;1.00;;;;;;5140750;27;20508;-59
2023/06/27 06:12:41;;;;;;;11.20;5.43;;;16.30;1.00;;;;;;5140815;27;20540;-60
2023/06/27 06:15:10;;;;;;;11.43;4.80;;;16.30;1.00;;;;;;5140401;27;21471;-61
2023/06/27 06:17:37;;;;;;;9.37;5.47;;;16.30;1.00;;;;;;5149800;27;20890;-62
2023/06/27 06:20:09;;;;;;;9.73;4.90;;;16.40;1.00;;;;;;5119347;28;20459;-61
2023/06/27 06:22:36;;;;;;;19.10;5.93;;;16.40;1.00;;;;;;5119652;28;20451;-62
2023/06/27 06:25:04;;;;;;;10.57;5.20;;;16.50;1.00;;;;;;5119601;28;20788;-62
2023/06/27 06:27:32;;;;;;;10.13;4.73;;;16.70;1.00;;;;;;5119210;28;20505;-62
2023/06/27 06:29:59;;;;;;;10.57;4.53;;;17.00;1.00;;;;;;5132685;27;20518;-62
2023/06/27 06:32:28;;;;;;;8.60;4.57;;;17.20;99.90;;;;;;5147831;27;20944;-61
2023/06/27 06:34:55;;;;;;;7.03;4.80;;;17.60;99.90;;;;;;5138281;27;20914;-61
2023/06/27 06:37:23;;;;;;;6.20;4.60;;;17.80;99.90;;;;;;5140591;27;20871;-60
2023/06/27 06:39:53;;;;;;;7.60;4.83;;;18.10;99.90;;;;;;5140082;27;20451;-60
2023/06/27 06:42:20;;;;;;;9.63;4.60;;;18.40;99.90;;;;;;5137412;27;20462;-60
2023/06/27 06:44:48;;;;;;;7.47;4.53;;;18.60;99.90;;;;;;5139854;27;20528;-61
2023/06/27 06:47:16;;;;;;;5.73;4.63;;;18.80;99.90;;;;;;5139385;27;20922;-60
2023/06/27 06:49:44;;;;;;;8.50;6.00;;;19.00;99.90;;;;;;5130513;27;20458;-60
2023/06/27 06:52:12;;;;;;;11.30;5.57;;;19.40;99.90;;;;;;5140565;27;20934;-59
2023/06/27 06:54:43;;;;;;;7.10;5.00;;;19.40;99.90;;;;;;5140977;27;20825;-60
2023/06/27 06:57:11;;;;;;;10.17;5.33;;;19.60;99.90;;;;;;5141396;27;20553;-60
2023/06/27 06:59:38;;;;;;;10.97;5.00;;;19.60;99.90;;;;;;5135320;27;20809;-64
2023/06/27 07:02:06;;;;;;;9.93;5.60;;;19.80;99.90;;;;;;5138236;27;20577;-65
2023/06/27 07:04:33;;;;;;;10.17;4.97;;;20.10;99.90;;;;;;5142146;27;20522;-65
2023/06/27 07:07:02;;;;;;;11.43;5.70;;;20.10;99.90;;;;;;5161656;27;20512;-66
2023/06/27 07:09:30;;;;;;;11.67;5.53;;;19.70;99.90;;;;;;5164302;27;20885;-66
2023/06/27 07:11:57;;;;;;;8.53;5.10;;;19.60;99.90;;;;;;5167476;27;20521;-67
2023/06/27 07:14:30;;;;;;;10.10;5.87;;;19.80;99.90;;;;;;5165111;27;20483;-67
2023/06/27 07:16:57;;;;;;;12.00;5.57;;;19.80;1.00;;;;;;5161632;27;20490;-65
2023/06/27 07:19:25;;;;;;;15.67;6.80;;;20.10;99.90;;;;;;5161123;27;20502;-67
2023/06/27 07:21:52;;;;;;;9.33;5.50;;;20.30;99.90;;;;;;5160914;27;20454;-66
2023/06/27 07:24:21;;;;;;;13.40;6.67;;;20.80;18.60;;;;;;5161057;27;20914;-66
2023/06/27 07:26:48;;;;;;;10.40;6.33;;;21.00;99.90;;;;;;5161542;27;20867;-66
2023/06/27 07:29:17;;;;;;;10.20;5.73;;;20.80;99.90;;;;;;5160458;27;20458;-65
2023/06/27 07:31:44;;;;;;;11.53;5.30;;;20.80;1.00;;;;;;5147242;27;20477;-66
2023/06/27 07:34:11;;;;;;;10.37;5.40;;;21.20;99.90;;;;;;5139469;27;20840;-67
2023/06/27 07:36:39;;;;;;;12.40;5.67;;;20.90;98.20;;;;;;5139436;27;20528;-66
2023/06/27 07:39:06;;;;;;;9.27;5.00;;;20.60;1.00;;;;;;5140148;27;20462;-64
2023/06/27 07:41:36;;;;;;;9.77;5.50;;;20.70;1.00;;;;;;5138661;27;20557;-64
2023/06/27 07:44:03;;;;;;;9.40;5.40;;;21.10;1.00;;;;;;5139602;27;20486;-65
2023/06/27 07:46:30;;;;;;;13.03;5.73;;;21.70;13.90;;;;;;5146723;27;20470;-64
2023/06/27 07:48:59;;;;;;;8.40;6.20;;;22.30;1.10;;;;;;5140661;27;20470;-66
2023/06/27 07:51:27;;;;;;;8.40;5.13;;;22.30;99.90;;;;;;5152921;27;20470;-66
2023/06/27 07:53:56;;;;;;;11.30;5.63;;;21.90;99.90;;;;;;5137576;27;20472;-65
2023/06/27 07:56:23;;;;;;;9.53;5.30;;;21.90;99.90;;;;;;5143789;27;20481;-67
2023/06/27 07:58:53;;;;;;;14.37;5.70;;;22.20;99.90;;;;;;5141996;27;20505;-67
2023/06/27 08:01:20;;;;;;;12.40;5.40;;;22.20;70.90;;;;;;5146302;27;20921;-64
2023/06/27 08:03:47;;;;;;;11.10;5.97;;;22.10;12.90;;;;;;5155393;27;20469;-65
2023/06/27 08:06:15;;;;;;;10.53;5.20;;;22.20;45.70;;;;;;5158833;27;20457;-65
2023/06/27 08:08:42;;;;;;;11.00;6.03;;;22.40;1.00;;;;;;5158931;27;20461;-65
2023/06/27 08:11:10;;;;;;;8.27;5.33;;;22.90;7.50;;;;;;5158436;27;20534;-64
2023/06/27 08:13:41;;;;;;;7.30;4.40;;;22.90;32.90;;;;;;5158530;27;20446;-64
2023/06/27 08:16:10;;;;;;;9.27;5.20;;;23.00;1.00;;;;;;5149433;27;20529;-65
2023/06/27 08:18:38;;;;;;;14.17;5.93;;;23.10;1.00;;;;;;5141846;27;20467;-66
2023/06/27 08:21:05;;;;;;;10.07;4.63;;;22.80;1.00;;;;;;5138373;27;20767;-70
2023/06/27 08:23:33;;;;;;;12.53;5.67;;;22.80;1.00;;;;;;5138445;27;20465;-68
2023/06/27 08:26:00;;;;;;;6.53;5.00;;;22.90;1.00;;;;;;5138366;27;20520;-66
2023/06/27 08:28:27;;;;;;;9.63;4.67;;;22.90;1.00;;;;;;5138868;27;20462;-67
2023/06/27 08:30:55;;;;;;;7.30;4.60;;;23.10;1.00;;;;;;5143360;27;20458;-66
2023/06/27 08:33:25;;;;;;;11.50;5.70;;;23.50;1.00;;;;;;5159430;27;20461;-67
2023/06/27 08:35:52;;;;;;;11.30;5.50;;;24.10;1.00;;;;;;5153557;27;20478;-67
2023/06/27 08:38:19;;;;;;;11.30;5.10;;;23.60;1.00;;;;;;5141006;27;20569;-67
2023/06/27 08:40:50;;;;;;;10.83;5.33;;;23.80;1.00;;;;;;5139118;27;20823;-67
2023/06/27 08:43:17;;;;;;;7.50;5.43;;;24.20;1.00;;;;;;5123005;27;20717;-66
2023/06/27 08:45:46;;;;;;;12.30;5.40;;;23.80;1.00;;;;;;5138926;27;20529;-67
2023/06/27 08:48:15;;;;;;;11.10;5.27;;;24.00;1.00;;;;;;5138592;27;20550;-66
2023/06/27 08:50:45;;;;;;;9.00;5.20;;;23.50;1.00;;;;;;5139169;27;20872;-66
2023/06/27 08:53:14;;;;;;;11.00;4.33;;;24.00;1.00;;;;;;5138457;27;20835;-66
2023/06/27 08:55:51;;;;;;;8.03;4.87;;;24.60;1.00;;;;;;5137478;27;20461;-67
2023/06/27 08:58:23;;;;;;;6.90;4.37;;;25.20;1.00;;;;;;5138797;27;20515;-67
2023/06/27 09:00:54;;;;;;;8.17;4.60;;;25.50;99.90;;;;;;5132875;27;20495;-65
2023/06/27 09:03:22;;;;;;;7.10;4.60;;;23.70;99.90;;;;;;5147010;27;20546;-66
2023/06/27 09:05:50;;;;;;;8.57;3.93;;;23.10;99.90;;;;;;5152429;27;20489;-68
2023/06/27 09:08:20;;;;;;;11.53;4.93;;;22.50;99.90;;;;;;5152654;27;20919;-66
2023/06/27 09:10:48;;;;;;;8.73;4.93;;;22.80;99.90;;;;;;5154768;27;20468;-68
2023/06/27 09:13:17;;;;;;;9.27;4.90;;;23.80;99.90;;;;;;5158915;27;20879;-67
2023/06/27 09:15:44;;;;;;;9.80;4.87;;;24.40;99.90;;;;;;5159032;27;20458;-67
2023/06/27 09:18:12;;;;;;;10.63;5.13;;;25.30;99.90;;;;;;5159901;27;20548;-68
2023/06/27 09:20:39;;;;;;;8.27;4.40;;;24.90;99.90;;;;;;5160931;27;20504;-68
2023/06/27 09:23:09;;;;;;;10.23;4.47;;;24.50;99.90;;;;;;5158740;27;20949;-66
2023/06/27 09:25:37;;;;;;;5.23;3.73;;;24.40;99.90;;;;;;5159789;27;20486;-70
2023/06/27 09:28:16;;;;;;;5.93;4.27;;;23.50;99.90;;;;;;5143058;27;20490;-67
2023/06/27 09:30:53;;;;;;;6.43;4.17;;;23.30;99.90;;;;;;5139088;28;20461;-67
2023/06/27 09:33:20;;;;;;;9.37;4.53;;;22.80;99.90;;;;;;5137603;28;20454;-66
2023/06/27 09:35:48;;;;;;;4.70;3.50;;;22.60;99.90;;;;;;5135915;27;20446;-66
2023/06/27 09:38:19;;;;;;;9.43;4.80;;;22.80;99.90;;;;;;5136755;27;20970;-67
2023/06/27 09:40:48;;;;;;;9.60;3.30;;;22.50;98.90;;;;;;5140327;28;20458;-67
2023/06/27 09:43:16;;;;;;;7.60;3.53;;;22.60;86.40;;;;;;5136113;28;20523;-64
2023/06/27 09:45:44;;;;;;;4.23;3.63;;;22.50;92.80;;;;;;5137539;28;20486;-67
2023/06/27 09:48:11;;;;;;;8.10;3.57;;;22.80;87.80;;;;;;5143337;28;20454;-66
2023/06/27 09:50:40;;;;;;;9.30;4.00;;;23.30;71.10;;;;;;5138403;28;20459;-66
2023/06/27 09:53:09;;;;;;;5.73;3.20;;;23.00;55.10;;;;;;5137963;28;20450;-67
2023/06/27 09:55:37;;;;;;;5.27;4.10;;;23.00;93.90;;;;;;5140266;28;20451;-66
2023/06/27 09:58:05;;;;;;;4.33;3.40;;;23.00;77.30;;;;;;5144977;28;20452;-66
2023/06/27 10:00:32;;;;;;;6.90;3.30;;;23.40;99.90;;;;;;5137340;28;20490;-65
2023/06/27 10:03:00;;;;;;;5.20;3.13;;;22.80;49.20;;;;;;5139161;27;20466;-67
2023/06/27 10:05:27;;;;;;;6.90;3.37;;;22.50;29.00;;;;;;5142388;27;20558;-65
2023/06/27 10:07:54;;;;;;;4.40;3.33;;;22.30;23.60;;;;;;5140583;28;20485;-66
2023/06/27 10:10:27;;;;;;;9.50;3.70;;;22.10;49.40;;;;;;5142760;28;20807;-67
2023/06/27 10:12:57;;;;;;;5.20;3.03;;;22.20;74.20;;;;;;5140991;28;20928;-66
2023/06/27 10:15:24;;;;;;;6.40;3.67;;;22.80;75.60;;;;;;5128699;28;20871;-66
2023/06/27 10:17:51;;;;;;;4.20;3.33;;;23.10;60.00;;;;;;5139919;28;20846;-65
2023/06/27 10:20:19;;;;;;;10.43;3.30;;;23.40;72.20;;;;;;5141417;28;20745;-66
2023/06/27 10:22:48;;;;;;;6.60;3.43;;;24.00;71.30;;;;;;5133923;27;20463;-64
2023/06/27 10:25:19;;;;;;;9.23;4.40;;;24.40;69.00;;;;;;5129828;27;20514;-66
2023/06/27 10:27:46;;;;;;;5.53;3.60;;;24.40;91.90;;;;;;5140337;27;20465;-66
2023/06/27 10:30:25;;;;;;;6.57;3.40;;;25.10;99.90;;;;;;5141142;27;20492;-65
2023/06/27 10:33:08;;;;;;;5.33;3.10;;;25.10;66.60;;;;;;5129664;27;20466;-67
2023/06/27 10:35:40;;;;;;;6.83;3.60;;;24.90;14.00;;;;;;5141826;27;20549;-68
2023/06/27 10:38:09;;;;;;;7.70;3.43;;;24.90;22.00;;;;;;5139586;27;20506;-66
2023/06/27 10:41:23;;;;;;;6.10;3.50;;;24.70;7.70;;;;;;5142035;27;20511;-65
2023/06/27 10:43:52;;;;;;;5.77;3.67;;;24.10;1.00;;;;;;5140083;27;20470;-66
2023/06/27 10:46:22;;;;;;;5.50;3.03;;;24.30;1.00;;;;;;5142638;27;20498;-65
2023/06/27 10:48:53;;;;;;;5.33;3.20;;;25.10;1.00;;;;;;5119736;28;20463;-66
2023/06/27 10:51:22;;;;;;;5.57;3.17;;;24.80;1.00;;;;;;5126542;27;20891;-67
2023/06/27 10:54:14;;;;;;;7.23;3.07;;;24.60;1.00;;;;;;5142640;27;20525;-67
2023/06/27 10:56:43;;;;;;;2.87;2.67;;;24.10;1.00;;;;;;5143242;27;20451;-66
2023/06/27 10:59:12;;;;;;;4.10;3.03;;;23.80;1.00;;;;;;5142530;27;20450;-68
2023/06/27 11:01:50;;;;;;;6.07;3.20;;;23.80;1.00;;;;;;5153396;27;20938;-65
2023/06/27 11:04:18;;;;;;;4.67;3.30;;;24.40;1.00;;;;;;5137030;27;20516;-68
2023/06/27 11:06:46;;;;;;;3.87;3.03;;;24.10;1.00;;;;;;5139777;27;20850;-66
2023/06/27 11:09:16;;;;;;;3.57;3.07;;;23.50;1.00;;;;;;5140366;27;20458;-67
2023/06/27 11:11:54;;;;;;;5.73;3.00;;;23.40;1.00;;;;;;5145877;27;20466;-70
2023/06/27 11:14:34;;;;;;;4.43;3.20;;;23.60;1.00;;;;;;5143847;27;20437;-68
2023/06/27 11:17:04;;;;;;;5.00;2.90;;;23.80;1.00;;;;;;5152877;27;20497;-67
2023/06/27 11:19:33;;;;;;;6.77;3.83;;;23.50;1.00;;;;;;5163261;27;20483;-67
2023/06/27 11:22:01;;;;;;;7.70;3.67;;;23.40;1.00;;;;;;5170834;27;20454;-67
2023/06/27 11:24:30;;;;;;;5.40;4.03;;;23.30;1.00;;;;;;5160620;27;20489;-67
2023/06/27 11:26:57;;;;;;;6.97;3.60;;;23.00;1.00;;;;;;5141973;27;20468;-66
2023/06/27 11:29:25;;;;;;;7.97;3.53;;;22.60;1.00;;;;;;5144952;27;20454;-65
2023/06/27 11:31:54;;;;;;;7.70;3.93;;;22.90;1.00;;;;;;5146559;27;20454;-65
2023/06/27 11:34:24;;;;;;;9.67;3.57;;;22.80;1.00;;;;;;5143123;27;20480;-60
2023/06/27 11:36:51;;;;;;;5.50;3.60;;;23.10;1.00;;;;;;5140532;27;20549;-62
2023/06/27 11:39:19;;;;;;;4.30;3.67;;;22.80;1.00;;;;;;5139562;27;20477;-60
2023/06/27 11:41:47;;;;;;;5.07;3.47;;;22.20;1.00;;;;;;5140335;27;20867;-59
2023/06/27 11:44:16;;;;;;;7.40;3.47;;;22.10;1.00;;;;;;5139668;27;20463;-58
2023/06/27 11:46:49;;;;;;;5.17;3.40;;;22.10;1.00;;;;;;5151314;27;20571;-56
2023/06/27 11:49:17;;;;;;;4.10;3.50;;;22.00;1.00;;;;;;5152020;27;20546;-53
2023/06/27 11:51:46;;;;;;;6.07;3.27;;;21.80;1.00;;;;;;5139652;27;20944;-59
2023/06/27 11:54:18;;;;;;;7.43;3.40;;;21.70;1.00;;;;;;5138711;27;20470;-62
2023/06/27 11:56:46;;;;;;;6.43;3.60;;;21.90;1.00;;;;;;5137955;27;20429;-60
2023/06/27 11:59:13;;;;;;;8.43;3.70;;;21.90;1.00;;;;;;5137773;27;20454;-60
2023/06/27 12:01:42;;;;;;;4.90;3.37;;;21.80;1.00;;;;;;5138150;27;20506;-57
2023/06/27 12:04:19;;;;;;;5.73;3.23;;;22.20;1.00;;;;;;5134918;27;20564;-57
2023/06/27 12:06:48;;;;;;;6.43;3.57;;;22.30;1.00;;;;;;5136533;27;20935;-57
2023/06/27 12:09:24;;;;;;;7.07;3.40;;;22.60;1.00;;;;;;5137202;27;20458;-60
2023/06/27 12:11:58;;;;;;;7.93;3.00;;;22.70;1.00;;;;;;5136329;27;20458;-60
2023/06/27 12:14:26;;;;;;;5.63;2.90;;;22.80;1.00;;;;;;5118795;28;20742;-59
2023/06/27 12:16:54;;;;;;;5.80;3.60;;;22.80;1.00;;;;;;5132280;27;20508;-60
2023/06/27 12:19:23;;;;;;;4.67;2.90;;;23.20;1.00;;;;;;5137861;27;20490;-58
2023/06/27 12:21:53;;;;;;;6.70;3.17;;;22.80;1.00;;;;;;5128178;27;20469;-61
2023/06/27 12:24:21;;;;;;;9.20;3.93;;;23.00;1.00;;;;;;5124960;27;20456;-56
2023/06/27 12:26:48;;;;;;;7.17;2.90;;;22.50;1.00;;;;;;5137028;27;20586;-59
2023/06/27 12:29:16;;;;;;;5.53;2.47;;;22.60;1.00;;;;;;5135646;27;20864;-61
2023/06/27 12:31:46;;;;;;;3.13;2.60;;;22.90;1.00;;;;;;5138039;27;20443;-62
2023/06/27 12:34:13;;;;;;;5.30;3.10;;;23.60;1.00;;;;;;5155383;27;20457;-60
2023/06/27 12:36:40;;;;;;;4.57;3.13;;;24.10;1.00;;;;;;5155960;27;20725;-60
2023/06/27 12:39:09;;;;;;;4.30;3.30;;;24.40;1.00;;;;;;5138520;27;22070;-61
2023/06/27 12:41:37;;;;;;;5.63;3.27;;;24.70;1.00;;;;;;5127805;27;20891;-61
2023/06/27 12:44:05;;;;;;;3.83;2.60;;;24.70;1.00;;;;;;5136170;27;20455;-62
2023/06/27 12:46:33;;;;;;;4.20;2.90;;;24.30;1.00;;;;;;5132279;27;20555;-61
2023/06/27 12:49:01;;;;;;;4.07;3.10;;;24.80;1.00;;;;;;5138545;27;20879;-64
2023/06/27 12:51:28;;;;;;;4.43;2.90;;;25.50;1.00;;;;;;5135604;27;20561;-61
2023/06/27 12:53:56;;;;;;;4.67;3.07;;;25.90;1.00;;;;;;5135843;27;20526;-59
2023/06/27 12:56:24;;;;;;;6.40;3.13;;;25.40;1.00;;;;;;5137299;27;20429;-66
2023/06/27 12:58:53;;;;;;;5.80;3.70;;;25.60;1.00;;;;;;5165320;27;20515;-65